EGPF/GLA METAR and TAF weather

Enter ICAO airport designator
Station Type Date Time Source
EGPF METAR 2019/05/23 18:50 UTC NOAA

EGPF 231850Z AUTO 28014KT 9999 BKN028 12/06 Q1015


Station Type Date Time Source
EGPF Decoded METAR 2019/05/23 18:50 UTC NOAA

Glasgow Airport, United Kingdom (EGPF) 55-52N 004-26W 0M
May 23, 2019 - 02:50 PM EDT / 2019.05.23 1850 UTC
Wind: from the W (280 degrees) at 16 MPH (14 KT):0
Visibility: greater than 7 mile(s):0
Sky conditions: mostly cloudy
Temperature: 53 F (12 C)
Dew Point: 42 F (6 C)
Relative Humidity: 66%
Pressure (altimeter): 29.97 in. Hg (1015 hPa)
ob: EGPF 231850Z AUTO 28014KT 9999 BKN028 12/06 Q1015
cycle: 19

Station Type Date Time Source
EGPF TAF 2019/05/23 18:09 UTC NOAA

TAF EGPF 231659Z 2318/2418 25009KT 9999 SCT030 PROB30
TEMPO 2320/2405 BKN012

Example: see airport list